createdAt,value
2022-11-12T00:00:59.152Z,7.83
2022-11-12T00:03:27.535Z,9.07
2022-11-12T00:05:55.243Z,7.43
2022-11-12T00:08:23.432Z,8.00
2022-11-12T00:10:51.355Z,7.90
2022-11-12T00:13:19.070Z,7.63
2022-11-12T00:15:48.427Z,9.20
2022-11-12T00:18:16.130Z,9.30
2022-11-12T00:20:43.919Z,7.37
2022-11-12T00:23:11.626Z,8.30
2022-11-12T00:25:39.352Z,8.53
2022-11-12T00:28:09.006Z,9.50
2022-11-12T00:30:39.959Z,7.93
2022-11-12T00:33:09.163Z,8.87
2022-11-12T00:35:36.944Z,9.40
2022-11-12T00:38:04.806Z,8.03
2022-11-12T00:40:32.567Z,7.50
2022-11-12T00:43:00.383Z,6.73
2022-11-12T00:45:28.065Z,8.07
2022-11-12T00:47:57.051Z,8.13
2022-11-12T00:50:26.232Z,6.87
2022-11-12T00:52:54.863Z,6.70
2022-11-12T00:55:22.828Z,6.37
2022-11-12T00:57:50.528Z,6.73
2022-11-12T01:00:19.918Z,6.30
2022-11-12T01:02:51.272Z,6.80
2022-11-12T01:05:20.450Z,7.30
2022-11-12T01:07:55.674Z,7.00
2022-11-12T01:10:23.994Z,7.47
2022-11-12T01:12:51.739Z,7.10
2022-11-12T01:15:19.579Z,6.50
2022-11-12T01:17:47.281Z,6.67
2022-11-12T01:20:15.012Z,5.90
2022-11-12T01:22:42.733Z,6.83
2022-11-12T01:25:11.952Z,8.20
2022-11-12T01:27:39.660Z,6.90
2022-11-12T01:30:08.328Z,7.40
2022-11-12T01:32:37.815Z,7.50
2022-11-12T01:35:06.657Z,6.93
2022-11-12T01:37:34.353Z,6.87
2022-11-12T01:40:02.078Z,7.30
2022-11-12T01:42:33.307Z,6.77
2022-11-12T01:45:01.147Z,7.17
2022-11-12T01:47:31.968Z,7.17
2022-11-12T01:50:06.137Z,6.77
2022-11-12T01:52:38.210Z,6.93
2022-11-12T01:55:10.804Z,6.00
2022-11-12T01:57:44.603Z,5.87
2022-11-12T02:00:14.415Z,7.13
2022-11-12T02:02:46.838Z,6.20
2022-11-12T02:05:15.980Z,6.20
2022-11-12T02:07:46.983Z,5.23
2022-11-12T02:10:15.269Z,5.33
2022-11-12T02:13:02.372Z,7.03
2022-11-12T02:15:30.416Z,5.80
2022-11-12T02:17:58.347Z,6.50
2022-11-12T02:20:26.539Z,6.90
2022-11-12T02:22:55.584Z,7.30
2022-11-12T02:25:25.779Z,6.20
2022-11-12T02:27:55.512Z,6.33
2022-11-12T02:30:33.545Z,6.47
2022-11-12T02:33:01.554Z,6.67
2022-11-12T02:35:29.264Z,7.30
2022-11-12T02:37:58.302Z,6.13
2022-11-12T02:40:26.228Z,7.40
2022-11-12T02:42:53.979Z,6.70
2022-11-12T02:45:22.066Z,5.63
2022-11-12T02:47:50.159Z,7.10
2022-11-12T02:50:18.340Z,6.17
2022-11-12T02:52:46.319Z,7.07
2022-11-12T02:55:15.411Z,6.40
2022-11-12T02:57:43.090Z,6.93
2022-11-12T03:00:14.035Z,7.40
2022-11-12T03:02:43.677Z,7.13
2022-11-12T03:05:11.801Z,6.87
2022-11-12T03:07:39.715Z,6.10
2022-11-12T03:10:08.210Z,6.47
2022-11-12T03:12:37.283Z,5.23
2022-11-12T03:15:05.533Z,5.23
2022-11-12T03:17:35.517Z,5.37
2022-11-12T03:20:03.359Z,5.03
2022-11-12T03:22:31.049Z,5.50
2022-11-12T03:24:58.775Z,5.63
2022-11-12T03:27:26.520Z,6.20
2022-11-12T03:29:55.666Z,5.40
2022-11-12T03:32:23.400Z,5.63
2022-11-12T03:34:55.296Z,5.70
2022-11-12T03:37:23.481Z,3.90
2022-11-12T03:39:51.200Z,4.40
2022-11-12T03:42:18.885Z,4.07
2022-11-12T03:44:46.707Z,4.40
2022-11-12T03:47:15.823Z,5.07
2022-11-12T03:49:43.510Z,4.40
2022-11-12T03:52:11.251Z,4.10
2022-11-12T03:54:38.947Z,4.13
2022-11-12T03:57:06.662Z,4.47
2022-11-12T03:59:34.509Z,5.30
2022-11-12T04:02:02.491Z,4.43
2022-11-12T04:04:45.460Z,4.50
2022-11-12T04:07:30.506Z,3.83
2022-11-12T04:09:58.253Z,4.03
2022-11-12T04:12:43.726Z,4.43
2022-11-12T04:15:11.738Z,4.83
2022-11-12T04:17:56.929Z,4.97
2022-11-12T04:20:43.815Z,5.23
2022-11-12T04:23:11.528Z,5.43
2022-11-12T04:25:58.082Z,4.77
2022-11-12T04:28:26.004Z,5.40
2022-11-12T04:30:52.896Z,5.60
2022-11-12T04:33:20.639Z,5.33
2022-11-12T04:35:49.676Z,6.03
2022-11-12T04:38:17.363Z,6.00
2022-11-12T04:41:02.600Z,7.13
2022-11-12T04:43:47.849Z,6.30
2022-11-12T04:46:15.610Z,5.27
2022-11-12T04:48:43.317Z,4.80
2022-11-12T04:51:27.129Z,6.13
2022-11-12T04:53:54.838Z,5.83
2022-11-12T04:56:22.523Z,6.17
2022-11-12T04:58:50.346Z,4.60
2022-11-12T05:01:18.112Z,4.53
2022-11-12T05:03:45.852Z,6.43
2022-11-12T05:06:28.814Z,5.47
2022-11-12T05:08:56.751Z,5.03
2022-11-12T05:11:24.459Z,5.10
2022-11-12T05:13:52.263Z,4.60
2022-11-12T05:16:19.981Z,5.90
2022-11-12T05:18:48.834Z,6.27
2022-11-12T05:21:40.573Z,5.40
2022-11-12T05:24:27.355Z,5.50
2022-11-12T05:26:58.750Z,4.93
2022-11-12T05:29:26.438Z,4.87
2022-11-12T05:31:54.120Z,5.13
2022-11-12T05:34:23.171Z,5.37
2022-11-12T05:36:52.487Z,5.30
2022-11-12T05:39:20.170Z,5.47
2022-11-12T05:42:11.477Z,6.53
2022-11-12T05:44:36.415Z,4.93
2022-11-12T05:47:04.240Z,5.27
2022-11-12T05:49:31.963Z,6.20
2022-11-12T05:52:01.034Z,5.70
2022-11-12T05:54:28.824Z,6.03
2022-11-12T05:56:56.526Z,5.77
2022-11-12T05:59:24.470Z,5.37
2022-11-12T06:01:52.232Z,5.30
2022-11-12T06:04:19.927Z,5.43
2022-11-12T06:06:47.693Z,4.70
2022-11-12T06:09:16.876Z,5.63
2022-11-12T06:11:44.565Z,5.47
2022-11-12T06:14:12.248Z,5.90
2022-11-12T06:16:39.992Z,5.30
2022-11-12T06:19:07.843Z,5.97
2022-11-12T06:21:35.540Z,5.17
2022-11-12T06:24:03.505Z,5.90
2022-11-12T06:26:32.623Z,5.23
2022-11-12T06:29:00.406Z,6.10
2022-11-12T06:31:28.126Z,5.53
2022-11-12T06:33:55.827Z,5.13
2022-11-12T06:36:23.518Z,5.97
2022-11-12T06:38:51.326Z,5.87
2022-11-12T06:41:19.027Z,5.17
2022-11-12T06:43:48.080Z,6.23
2022-11-12T06:46:17.916Z,5.83
2022-11-12T06:48:45.670Z,6.50
2022-11-12T06:51:17.934Z,6.07
2022-11-12T06:53:47.026Z,6.07
2022-11-12T06:56:15.171Z,6.10
2022-11-12T06:58:43.037Z,5.67
2022-11-12T07:01:14.635Z,6.80
2022-11-12T07:03:44.199Z,6.87
2022-11-12T07:06:14.560Z,9.83
2022-11-12T07:08:43.124Z,9.77
2022-11-12T07:11:11.371Z,8.37
2022-11-12T07:13:39.398Z,10.20
2022-11-12T07:16:09.079Z,10.87
2022-11-12T07:18:38.959Z,9.23
2022-11-12T07:21:08.450Z,5.93
2022-11-12T07:23:37.386Z,6.17
2022-11-12T07:26:07.147Z,7.80
2022-11-12T07:28:35.518Z,10.23
2022-11-12T07:31:04.696Z,9.07
2022-11-12T07:33:33.134Z,13.87
2022-11-12T07:36:04.044Z,11.73
2022-11-12T07:38:33.407Z,8.97
2022-11-12T07:41:02.670Z,6.17
2022-11-12T07:43:32.818Z,6.40
2022-11-12T07:46:04.770Z,5.23
2022-11-12T07:48:35.828Z,5.57
2022-11-12T07:51:07.347Z,7.97
2022-11-12T07:53:35.639Z,15.77
2022-11-12T07:56:04.684Z,17.63
2022-11-12T07:58:33.662Z,8.57
2022-11-12T08:01:10.578Z,6.47
2022-11-12T08:03:38.504Z,6.37
2022-11-12T08:06:08.384Z,5.80
2022-11-12T08:08:36.112Z,7.83
2022-11-12T08:11:03.798Z,6.27
2022-11-12T08:13:31.623Z,5.57
2022-11-12T08:15:59.728Z,7.73
2022-11-12T08:18:28.237Z,7.20
2022-11-12T08:21:01.029Z,6.60
2022-11-12T08:23:30.180Z,6.53
2022-11-12T08:26:02.104Z,7.73
2022-11-12T08:28:30.591Z,6.40
2022-11-12T08:30:59.162Z,6.80
2022-11-12T08:33:27.011Z,7.63
2022-11-12T08:35:54.702Z,8.25
2022-11-12T08:38:22.426Z,8.20
2022-11-12T08:40:51.670Z,7.50
2022-11-12T08:43:19.380Z,7.13
2022-11-12T08:45:48.593Z,7.73
2022-11-12T08:48:16.319Z,7.53
2022-11-12T08:50:43.996Z,7.10
2022-11-12T08:53:13.623Z,9.30
2022-11-12T08:55:41.571Z,7.80
2022-11-12T08:58:10.971Z,9.03
2022-11-12T09:00:41.296Z,11.20
2022-11-12T09:03:14.280Z,9.03
2022-11-12T09:05:43.296Z,44.87
2022-11-12T09:08:13.882Z,14.30
2022-11-12T09:10:42.194Z,8.00
2022-11-12T09:13:11.848Z,8.83
2022-11-12T09:15:39.562Z,9.57
2022-11-12T09:18:09.446Z,8.40
2022-11-12T09:20:37.146Z,9.60
2022-11-12T09:23:07.961Z,11.07
2022-11-12T09:25:36.637Z,10.80
2022-11-12T09:28:09.294Z,9.23
2022-11-12T09:30:39.489Z,10.23
2022-11-12T09:33:07.167Z,9.03
2022-11-12T09:35:35.728Z,8.50
2022-11-12T09:38:03.451Z,7.77
2022-11-12T09:40:47.149Z,7.97
2022-11-12T09:43:23.445Z,9.07
2022-11-12T09:46:21.402Z,8.20
2022-11-12T09:48:45.701Z,7.27
2022-11-12T09:51:29.553Z,7.77
2022-11-12T09:53:58.874Z,9.03
2022-11-12T09:56:28.227Z,8.07
2022-11-12T09:58:56.054Z,7.83
2022-11-12T10:01:35.764Z,8.23
2022-11-12T10:04:22.225Z,8.50
2022-11-12T10:06:56.418Z,8.87
2022-11-12T10:09:29.618Z,8.47
2022-11-12T10:12:30.311Z,9.23
2022-11-12T10:15:38.980Z,8.03
2022-11-12T10:18:14.335Z,9.67
2022-11-12T10:20:46.808Z,8.60
2022-11-12T10:23:20.021Z,10.17
2022-11-12T10:25:50.264Z,9.57
2022-11-12T10:28:34.260Z,10.27
2022-11-12T10:31:12.633Z,10.37
2022-11-12T10:33:41.871Z,10.60
2022-11-12T10:36:29.977Z,10.03
2022-11-12T10:38:57.968Z,10.10
2022-11-12T10:41:28.806Z,10.10
2022-11-12T10:43:58.850Z,11.13
2022-11-12T10:46:28.273Z,11.07
2022-11-12T10:49:01.044Z,10.40
2022-11-12T10:51:31.583Z,10.27
2022-11-12T10:53:59.419Z,9.53
2022-11-12T10:56:32.414Z,9.10
2022-11-12T10:59:16.515Z,8.70
2022-11-12T11:01:46.243Z,8.87
2022-11-12T11:04:28.584Z,9.77
2022-11-12T11:07:01.737Z,9.13
2022-11-12T11:09:29.708Z,10.13
2022-11-12T11:11:57.592Z,10.40
2022-11-12T11:14:28.335Z,10.33
2022-11-12T11:16:59.260Z,11.53
2022-11-12T11:19:34.967Z,8.67
2022-11-12T11:22:27.414Z,9.57
2022-11-12T11:25:07.264Z,10.67
2022-11-12T11:27:42.424Z,9.77
2022-11-12T11:30:15.338Z,9.23
2022-11-12T11:32:57.790Z,10.53
2022-11-12T11:35:33.119Z,10.77
2022-11-12T11:38:16.964Z,11.50
2022-11-12T11:40:57.069Z,11.97
2022-11-12T11:43:41.689Z,11.77
2022-11-12T11:46:18.099Z,11.90
2022-11-12T11:48:58.635Z,10.03
2022-11-12T11:51:40.571Z,11.17
2022-11-12T11:54:20.509Z,11.80
2022-11-12T11:56:50.900Z,11.23
2022-11-12T11:59:29.357Z,12.00
2022-11-12T12:02:24.935Z,10.57
2022-11-12T12:04:59.511Z,9.20
2022-11-12T12:07:37.823Z,11.20
2022-11-12T12:10:18.379Z,11.93
2022-11-12T12:12:59.860Z,12.30
2022-11-12T12:15:48.519Z,12.07
2022-11-12T12:18:30.956Z,13.00
2022-11-12T12:21:04.580Z,11.63
2022-11-12T12:23:39.339Z,13.60
2022-11-12T12:26:12.823Z,13.80
2022-11-12T12:28:45.201Z,13.57
2022-11-12T12:31:17.259Z,14.63
2022-11-12T12:33:50.935Z,15.20
2022-11-12T12:36:22.272Z,14.90
2022-11-12T12:38:56.276Z,14.83
2022-11-12T12:41:28.591Z,13.57
2022-11-12T12:43:59.675Z,13.87
2022-11-12T12:46:31.671Z,13.87
2022-11-12T12:49:01.740Z,12.27
2022-11-12T12:51:32.114Z,12.87
2022-11-12T12:54:01.485Z,13.70
2022-11-12T12:56:47.079Z,13.40
2022-11-12T12:59:23.220Z,14.97
2022-11-12T13:02:00.453Z,19.10
2022-11-12T13:04:57.284Z,17.40
2022-11-12T13:07:41.676Z,12.87
2022-11-12T13:10:56.072Z,14.53
2022-11-12T13:13:34.506Z,14.00
2022-11-12T13:16:03.503Z,13.43
2022-11-12T13:19:03.017Z,13.77
2022-11-12T13:21:31.138Z,11.17
2022-11-12T13:24:07.661Z,10.67
2022-11-12T13:26:54.513Z,11.10
2022-11-12T13:29:26.119Z,9.70
2022-11-12T13:32:27.047Z,9.93
2022-11-12T13:35:16.378Z,10.50
2022-11-12T13:37:45.265Z,9.70
2022-11-12T13:40:16.111Z,9.97
2022-11-12T13:42:50.261Z,9.87
2022-11-12T13:45:21.648Z,9.90
2022-11-12T13:47:50.067Z,10.50
2022-11-12T13:50:21.142Z,8.93
2022-11-12T13:52:49.961Z,8.30
2022-11-12T13:55:19.236Z,8.30
2022-11-12T13:57:50.542Z,8.27
2022-11-12T14:00:28.600Z,8.30
2022-11-12T14:02:59.659Z,8.43
2022-11-12T14:05:29.484Z,8.60
2022-11-12T14:08:19.148Z,8.10
2022-11-12T14:10:58.407Z,8.50
2022-11-12T14:13:36.758Z,8.23
2022-11-12T14:16:36.249Z,8.23
2022-11-12T14:19:27.168Z,7.47
2022-11-12T14:22:03.268Z,8.23
2022-11-12T14:24:33.735Z,8.27
2022-11-12T14:27:01.591Z,8.27
2022-11-12T14:29:34.717Z,10.17
2022-11-12T14:32:10.104Z,10.30
2022-11-12T14:34:37.840Z,9.70
2022-11-12T14:37:06.258Z,9.53
2022-11-12T14:39:35.472Z,8.80
2022-11-12T14:42:03.328Z,9.60
2022-11-12T14:44:36.578Z,9.87
2022-11-12T14:47:05.733Z,10.30
2022-11-12T14:49:43.892Z,11.53
2022-11-12T14:52:16.878Z,11.70
2022-11-12T14:54:50.426Z,11.43
2022-11-12T14:57:21.407Z,11.07
2022-11-12T14:59:49.144Z,11.53
2022-11-12T15:02:33.537Z,10.70
2022-11-12T15:05:14.579Z,10.97
2022-11-12T15:07:54.423Z,13.73
2022-11-12T15:10:36.991Z,11.57
2022-11-12T15:13:07.854Z,11.63
2022-11-12T15:15:38.364Z,11.90
2022-11-12T15:18:15.099Z,12.23
2022-11-12T15:20:43.113Z,12.80
2022-11-12T15:23:18.888Z,13.83
2022-11-12T15:25:46.819Z,12.77
2022-11-12T15:28:21.433Z,13.23
2022-11-12T15:31:02.573Z,14.70
2022-11-12T15:33:31.685Z,11.77
2022-11-12T15:36:00.900Z,13.40
2022-11-12T15:38:31.892Z,12.70
2022-11-12T15:41:00.463Z,13.53
2022-11-12T15:43:30.831Z,15.30
2022-11-12T15:45:58.631Z,16.97
2022-11-12T15:48:26.376Z,15.83
2022-11-12T15:50:56.171Z,19.40
2022-11-12T15:53:23.992Z,18.67
2022-11-12T15:55:53.218Z,16.17
2022-11-12T15:58:32.883Z,15.43
2022-11-12T16:01:00.914Z,16.50
2022-11-12T16:03:28.991Z,19.17
2022-11-12T16:05:59.119Z,17.80
2022-11-12T16:08:29.116Z,16.43
2022-11-12T16:10:56.878Z,17.27
2022-11-12T16:13:29.957Z,17.63
2022-11-12T16:15:58.246Z,15.37
2022-11-12T16:18:26.036Z,16.13
2022-11-12T16:20:53.770Z,17.60
2022-11-12T16:23:22.820Z,15.83
2022-11-12T16:25:50.626Z,16.37
2022-11-12T16:28:19.893Z,17.50
2022-11-12T16:30:50.606Z,17.13
2022-11-12T16:33:18.325Z,17.57
2022-11-12T16:35:46.196Z,17.60
2022-11-12T16:38:15.660Z,17.60
2022-11-12T16:40:45.709Z,15.03
2022-11-12T16:43:13.525Z,13.27
2022-11-12T16:45:42.916Z,14.83
2022-11-12T16:48:15.331Z,13.93
2022-11-12T16:50:43.051Z,14.07
2022-11-12T16:53:10.813Z,14.53
2022-11-12T16:55:38.596Z,14.07
2022-11-12T16:58:07.719Z,15.53
2022-11-12T17:00:35.515Z,14.23
2022-11-12T17:03:03.213Z,15.07
2022-11-12T17:05:31.387Z,16.17
2022-11-12T17:07:59.450Z,14.50
2022-11-12T17:10:27.740Z,15.50
2022-11-12T17:12:56.078Z,16.63
2022-11-12T17:15:25.217Z,16.43
2022-11-12T17:17:54.343Z,17.23
2022-11-12T17:20:22.060Z,17.30
2022-11-12T17:22:49.794Z,14.70
2022-11-12T17:25:17.536Z,18.67
2022-11-12T17:27:45.268Z,18.47
2022-11-12T17:30:14.103Z,19.00
2022-11-12T17:32:43.854Z,16.80
2022-11-12T17:35:11.552Z,14.53
2022-11-12T17:37:39.282Z,13.77
2022-11-12T17:40:08.530Z,12.63
2022-11-12T17:42:36.254Z,13.53
2022-11-12T17:45:04.051Z,12.70
2022-11-12T17:47:33.028Z,15.07
2022-11-12T17:50:03.889Z,14.07
2022-11-12T17:52:32.574Z,12.47
2022-11-12T17:55:00.462Z,12.60
2022-11-12T17:57:28.186Z,11.37
2022-11-12T17:59:55.813Z,13.50
2022-11-12T18:02:23.486Z,13.07
2022-11-12T18:04:51.113Z,14.10
2022-11-12T18:07:20.270Z,12.43
2022-11-12T18:09:48.023Z,11.97
2022-11-12T18:12:16.220Z,11.80
2022-11-12T18:14:43.922Z,10.83
2022-11-12T18:17:11.603Z,11.40
2022-11-12T18:19:39.298Z,11.60
2022-11-12T18:22:07.041Z,10.83
2022-11-12T18:24:36.235Z,11.60
2022-11-12T18:27:03.960Z,9.97
2022-11-12T18:29:31.648Z,40.77
2022-11-12T18:31:59.333Z,18.73
2022-11-12T18:34:27.035Z,12.67
2022-11-12T18:36:54.738Z,12.90
2022-11-12T18:39:22.428Z,11.40
2022-11-12T18:41:51.684Z,14.87
2022-11-12T18:44:24.772Z,12.47
2022-11-12T18:46:54.015Z,12.20
2022-11-12T18:49:21.725Z,13.23
2022-11-12T18:51:49.445Z,13.27
2022-11-12T18:54:17.183Z,12.70
2022-11-12T18:56:44.847Z,13.53
2022-11-12T18:59:13.921Z,14.70
2022-11-12T19:01:41.704Z,13.77
2022-11-12T19:04:11.912Z,14.13
2022-11-12T19:06:39.671Z,14.07
2022-11-12T19:09:10.103Z,13.77
2022-11-12T19:11:38.227Z,14.93
2022-11-12T19:14:05.998Z,15.10
2022-11-12T19:16:35.142Z,13.83
2022-11-12T19:19:02.937Z,15.93
2022-11-12T19:21:30.617Z,15.80
2022-11-12T19:24:00.406Z,14.23
2022-11-12T19:26:29.259Z,15.57
2022-11-12T19:28:58.231Z,14.63
2022-11-12T19:31:28.173Z,14.30
2022-11-12T19:33:57.733Z,13.77
2022-11-12T19:36:27.325Z,13.17
2022-11-12T19:38:56.866Z,13.57
2022-11-12T19:41:25.543Z,14.00
2022-11-12T19:43:53.860Z,15.30
2022-11-12T19:46:21.846Z,17.77
2022-11-12T19:48:49.966Z,17.00
2022-11-12T19:51:19.036Z,19.57
2022-11-12T19:53:47.079Z,23.43
2022-11-12T19:56:17.485Z,22.67
2022-11-12T19:58:46.479Z,18.87
2022-11-12T20:01:16.568Z,19.30
2022-11-12T20:03:44.629Z,16.10
2022-11-12T20:06:15.061Z,16.30
2022-11-12T20:08:44.324Z,15.10
2022-11-12T20:11:12.469Z,15.23
2022-11-12T20:13:40.851Z,14.33
2022-11-12T20:16:09.067Z,15.20
2022-11-12T20:18:36.796Z,16.37
2022-11-12T20:21:05.676Z,15.47
2022-11-12T20:23:33.945Z,18.13
2022-11-12T20:26:08.396Z,16.77
2022-11-12T20:28:36.708Z,16.70
2022-11-12T20:31:06.086Z,17.03
2022-11-12T20:33:37.903Z,18.37
2022-11-12T20:36:10.630Z,16.67
2022-11-12T20:38:39.144Z,17.27
2022-11-12T20:41:12.097Z,16.33
2022-11-12T20:43:39.806Z,16.73
2022-11-12T20:46:07.787Z,17.13
2022-11-12T20:48:41.497Z,14.80
2022-11-12T20:51:28.692Z,13.33
2022-11-12T20:54:00.536Z,13.80
2022-11-12T20:56:31.901Z,14.90
2022-11-12T20:59:00.435Z,13.27
2022-11-12T21:01:30.375Z,15.70
2022-11-12T21:03:58.881Z,14.80
2022-11-12T21:06:28.648Z,15.67
2022-11-12T21:08:59.413Z,12.73
2022-11-12T21:11:27.156Z,13.57
2022-11-12T21:13:56.271Z,12.03
2022-11-12T21:16:24.071Z,13.83
2022-11-12T21:18:51.876Z,13.07
2022-11-12T21:21:21.249Z,14.47
2022-11-12T21:23:50.474Z,13.13
2022-11-12T21:26:19.989Z,13.27
2022-11-12T21:28:49.564Z,13.60
2022-11-12T21:31:20.382Z,12.77
2022-11-12T21:36:20.246Z,12.67
2022-11-12T21:38:48.619Z,11.30
2022-11-12T21:41:17.860Z,12.37
2022-11-12T21:43:46.445Z,12.17
2022-11-12T21:46:15.891Z,11.43
2022-11-12T21:48:45.606Z,12.33
2022-11-12T21:51:17.711Z,11.77
2022-11-12T21:53:45.584Z,12.33
2022-11-12T21:56:14.856Z,11.53
2022-11-12T21:58:43.159Z,12.30
2022-11-12T22:01:12.486Z,12.13
2022-11-12T22:03:40.851Z,11.77
2022-11-12T22:06:10.559Z,11.33
2022-11-12T22:08:38.700Z,10.93
2022-11-12T22:11:08.196Z,11.73
2022-11-12T22:13:36.595Z,11.27
2022-11-12T22:16:08.660Z,11.90
2022-11-12T22:18:36.995Z,10.07
2022-11-12T22:21:07.032Z,11.30
2022-11-12T22:23:36.889Z,11.00
2022-11-12T22:26:06.437Z,10.97
2022-11-12T22:28:34.863Z,10.83
2022-11-12T22:31:06.241Z,10.73
2022-11-12T22:33:34.530Z,9.63
2022-11-12T22:36:03.174Z,9.83
2022-11-12T22:38:36.819Z,9.40
2022-11-12T22:41:06.998Z,8.47
2022-11-12T22:43:34.903Z,8.93
2022-11-12T22:46:07.127Z,8.90
2022-11-12T22:48:36.022Z,8.77
2022-11-12T22:51:04.938Z,9.20
2022-11-12T22:53:33.126Z,8.43
2022-11-12T22:56:05.972Z,8.33
2022-11-12T22:58:36.261Z,10.13
2022-11-12T23:01:05.310Z,8.40
2022-11-12T23:03:33.163Z,9.03
2022-11-12T23:06:03.213Z,8.73
2022-11-12T23:08:31.793Z,8.63
2022-11-12T23:11:04.015Z,8.93
2022-11-12T23:13:33.550Z,8.87
2022-11-12T23:16:01.427Z,9.43
2022-11-12T23:18:29.414Z,8.53
2022-11-12T23:21:02.968Z,9.17
2022-11-12T23:23:30.660Z,8.10
2022-11-12T23:26:03.755Z,9.10
2022-11-12T23:28:33.062Z,8.13
2022-11-12T23:31:00.895Z,9.03
2022-11-12T23:33:28.628Z,8.57
2022-11-12T23:36:03.867Z,8.97
2022-11-12T23:38:32.580Z,8.27
2022-11-12T23:41:00.811Z,8.40
2022-11-12T23:43:28.683Z,8.80
2022-11-12T23:45:58.129Z,7.67
2022-11-12T23:48:26.608Z,7.70
2022-11-12T23:51:02.240Z,8.90
2022-11-12T23:53:30.926Z,9.80
2022-11-12T23:55:58.617Z,8.50
2022-11-12T23:58:26.634Z,8.27
